createdAt,value
2022-08-28T00:00:42.122Z,15.52
2022-08-28T00:03:11.766Z,15.53
2022-08-28T00:05:41.936Z,15.49
2022-08-28T00:08:15.193Z,15.47
2022-08-28T00:10:44.034Z,15.48
2022-08-28T00:13:18.737Z,15.55
2022-08-28T00:15:50.502Z,15.50
2022-08-28T00:18:19.664Z,15.51
2022-08-28T00:20:48.708Z,15.43
2022-08-28T00:23:19.182Z,15.25
2022-08-28T00:25:47.567Z,15.08
2022-08-28T00:28:24.310Z,14.90
2022-08-28T00:30:55.437Z,14.87
2022-08-28T00:33:27.890Z,14.86
2022-08-28T00:35:59.455Z,14.91
2022-08-28T00:38:31.077Z,15.08
2022-08-28T00:41:04.938Z,15.18
2022-08-28T00:43:40.129Z,15.22
2022-08-28T00:46:15.279Z,15.43
2022-08-28T00:48:44.178Z,15.62
2022-08-28T00:51:32.677Z,15.81
2022-08-28T00:54:07.497Z,15.98
2022-08-28T00:56:37.564Z,16.16
2022-08-28T00:59:20.648Z,16.34
2022-08-28T01:05:28.907Z,16.62
2022-08-28T01:07:59.917Z,16.75
2022-08-28T01:10:33.502Z,16.88
2022-08-28T01:13:04.219Z,16.93
2022-08-28T01:15:38.040Z,17.02
2022-08-28T01:18:15.946Z,17.07
2022-08-28T01:20:55.091Z,17.12
2022-08-28T01:23:45.946Z,17.14
2022-08-28T01:26:14.627Z,17.21
2022-08-28T01:28:43.314Z,17.30
2022-08-28T01:31:12.725Z,17.34
2022-08-28T01:33:42.803Z,17.36
2022-08-28T01:36:12.458Z,17.40
2022-08-28T01:38:42.725Z,17.42
2022-08-28T01:41:13.992Z,17.39
2022-08-28T01:43:43.036Z,17.38
2022-08-28T01:46:13.103Z,17.39
2022-08-28T01:48:44.964Z,17.41
2022-08-28T01:51:14.760Z,17.42
2022-08-28T01:53:46.593Z,17.41
2022-08-28T01:56:17.909Z,17.44
2022-08-28T01:58:48.367Z,17.46
2022-08-28T02:01:19.999Z,17.48
2022-08-28T02:03:48.642Z,17.45
2022-08-28T02:06:17.900Z,17.44
2022-08-28T02:08:46.841Z,17.51
2022-08-28T02:11:17.464Z,17.51
2022-08-28T02:13:46.349Z,17.51
2022-08-28T02:16:19.732Z,17.56
2022-08-28T02:18:49.453Z,17.59
2022-08-28T02:21:18.327Z,17.62
2022-08-28T02:23:47.632Z,17.61
2022-08-28T02:26:17.746Z,17.58
2022-08-28T02:28:46.304Z,17.56
2022-08-28T02:31:15.801Z,17.57
2022-08-28T02:33:46.206Z,17.52
2022-08-28T02:36:17.211Z,17.57
2022-08-28T02:38:48.816Z,17.55
2022-08-28T02:41:19.073Z,17.59
2022-08-28T02:43:47.985Z,17.62
2022-08-28T02:46:16.616Z,17.61
2022-08-28T02:48:45.715Z,17.62
2022-08-28T02:51:15.561Z,17.61
2022-08-28T02:53:44.531Z,17.59
2022-08-28T02:56:13.787Z,17.61
2022-08-28T02:58:43.809Z,17.59
2022-08-28T03:01:15.487Z,17.61
2022-08-28T03:05:27.020Z,17.55
2022-08-28T03:07:56.370Z,17.50
2022-08-28T03:10:25.306Z,17.48
2022-08-28T03:12:54.187Z,17.47
2022-08-28T03:15:23.441Z,17.47
2022-08-28T03:17:51.976Z,17.46
2022-08-28T03:20:22.277Z,17.44
2022-08-28T03:23:08.093Z,17.47
2022-08-28T03:25:36.940Z,17.40
2022-08-28T03:28:05.741Z,17.46
2022-08-28T03:30:34.498Z,17.45
2022-08-28T03:33:03.372Z,17.45
2022-08-28T03:35:34.263Z,17.44
2022-08-28T03:38:03.162Z,17.43
2022-08-28T03:40:32.498Z,17.46
2022-08-28T03:43:02.002Z,17.45
2022-08-28T03:45:30.641Z,17.47
2022-08-28T03:47:59.263Z,17.49
2022-08-28T03:50:27.812Z,17.48
2022-08-28T03:52:59.432Z,17.47
2022-08-28T03:55:29.011Z,17.49
2022-08-28T03:57:57.635Z,17.50
2022-08-28T04:00:26.536Z,17.50
2022-08-28T04:02:55.321Z,17.45
2022-08-28T04:05:24.118Z,17.47
2022-08-28T04:07:53.890Z,17.46
2022-08-28T04:10:23.978Z,17.45
2022-08-28T04:12:53.839Z,17.43
2022-08-28T04:15:22.422Z,17.46
2022-08-28T04:17:50.925Z,17.43
2022-08-28T04:20:21.181Z,17.47
2022-08-28T04:22:50.095Z,17.51
2022-08-28T04:25:25.623Z,17.46
2022-08-28T04:27:54.185Z,17.49
2022-08-28T04:30:23.178Z,17.48
2022-08-28T04:32:51.835Z,17.48
2022-08-28T04:35:30.179Z,17.46
2022-08-28T04:37:59.124Z,17.46
2022-08-28T04:40:29.382Z,17.45
2022-08-28T04:42:58.046Z,17.47
2022-08-28T04:45:26.662Z,17.45
2022-08-28T04:47:55.212Z,17.47
2022-08-28T04:50:23.872Z,17.46
2022-08-28T04:52:52.914Z,17.44
2022-08-28T04:55:48.469Z,17.43
2022-08-28T04:58:11.937Z,17.48
2022-08-28T05:00:41.925Z,17.47
2022-08-28T05:05:24.442Z,17.47
2022-08-28T05:07:52.962Z,17.46
2022-08-28T05:10:21.606Z,17.49
2022-08-28T05:12:50.897Z,17.49
2022-08-28T05:15:19.739Z,17.48
2022-08-28T05:17:48.934Z,17.45
2022-08-28T05:20:17.947Z,17.40
2022-08-28T05:22:47.943Z,17.38
2022-08-28T05:25:16.655Z,17.33
2022-08-28T05:27:45.306Z,17.30
2022-08-28T05:30:15.075Z,17.30
2022-08-28T05:32:44.428Z,17.29
2022-08-28T05:35:14.020Z,17.27
2022-08-28T05:37:42.583Z,17.28
2022-08-28T05:40:13.914Z,17.23
2022-08-28T05:42:43.018Z,17.25
2022-08-28T05:45:11.921Z,17.22
2022-08-28T05:47:40.505Z,17.18
2022-08-28T05:50:10.718Z,17.19
2022-08-28T05:52:39.827Z,17.19
2022-08-28T05:55:13.312Z,17.20
2022-08-28T05:57:42.650Z,17.20
2022-08-28T06:00:13.830Z,17.22
2022-08-28T06:02:44.546Z,17.19
2022-08-28T06:05:13.398Z,17.16
2022-08-28T06:07:43.428Z,17.15
2022-08-28T06:10:13.474Z,17.16
2022-08-28T06:12:42.533Z,17.16
2022-08-28T06:15:12.470Z,17.13
2022-08-28T06:17:43.626Z,17.15
2022-08-28T06:20:13.738Z,17.13
2022-08-28T06:22:42.303Z,17.10
2022-08-28T06:25:14.382Z,17.11
2022-08-28T06:27:43.001Z,17.09
2022-08-28T06:30:12.829Z,17.14
2022-08-28T06:32:41.779Z,17.13
2022-08-28T06:35:10.754Z,17.17
2022-08-28T06:37:39.465Z,17.23
2022-08-28T06:40:10.284Z,17.36
2022-08-28T06:42:40.373Z,17.40
2022-08-28T06:45:10.861Z,17.53
2022-08-28T06:47:39.587Z,17.63
2022-08-28T06:50:09.183Z,17.71
2022-08-28T06:52:37.995Z,17.81
2022-08-28T06:55:12.100Z,17.75
2022-08-28T06:57:42.386Z,17.63
2022-08-28T07:00:13.243Z,17.66
2022-08-28T07:05:24.957Z,17.47
2022-08-28T07:07:55.495Z,17.49
2022-08-28T07:10:24.229Z,17.45
2022-08-28T07:12:53.169Z,17.34
2022-08-28T07:15:25.445Z,17.42
2022-08-28T07:17:54.179Z,17.54
2022-08-28T07:20:24.164Z,17.72
2022-08-28T07:22:59.353Z,17.88
2022-08-28T07:25:28.316Z,17.90
2022-08-28T07:27:57.251Z,17.87
2022-08-28T07:30:25.780Z,17.88
2022-08-28T07:32:54.284Z,17.94
2022-08-28T07:35:24.625Z,17.99
2022-08-28T07:37:53.331Z,17.92
2022-08-28T07:40:22.487Z,17.89
2022-08-28T07:43:14.561Z,17.95
2022-08-28T07:45:44.544Z,17.94
2022-08-28T07:48:13.453Z,17.97
2022-08-28T07:50:43.537Z,17.75
2022-08-28T07:53:12.072Z,17.66
2022-08-28T07:55:41.030Z,17.72
2022-08-28T07:58:09.729Z,17.66
2022-08-28T08:00:38.605Z,17.72
2022-08-28T08:03:07.794Z,17.78
2022-08-28T08:05:37.381Z,17.78
2022-08-28T08:08:07.819Z,17.68
2022-08-28T08:10:42.366Z,17.58
2022-08-28T08:13:11.019Z,17.45
2022-08-28T08:15:41.702Z,17.44
2022-08-28T08:18:10.484Z,17.52
2022-08-28T08:20:40.443Z,17.40
2022-08-28T08:23:13.706Z,17.41
2022-08-28T08:25:42.414Z,17.61
2022-08-28T08:28:11.035Z,17.86
2022-08-28T08:30:39.590Z,17.96
2022-08-28T08:33:08.294Z,17.92
2022-08-28T08:35:37.390Z,18.05
2022-08-28T08:38:06.630Z,18.05
2022-08-28T08:40:37.091Z,18.07
2022-08-28T08:43:05.913Z,17.87
2022-08-28T08:45:38.796Z,17.88
2022-08-28T08:48:11.644Z,17.98
2022-08-28T08:50:43.460Z,18.22
2022-08-28T08:53:29.430Z,18.59
2022-08-28T08:56:00.319Z,18.79
2022-08-28T08:58:36.795Z,18.99
2022-08-28T09:01:15.649Z,19.26
2022-08-28T09:05:42.685Z,18.91
2022-08-28T09:08:26.432Z,18.95
2022-08-28T09:11:04.674Z,19.17
2022-08-28T09:13:49.669Z,20.68
2022-08-28T09:16:30.676Z,20.59
2022-08-28T09:19:01.907Z,20.54
2022-08-28T09:21:45.023Z,22.64
2022-08-28T09:24:23.671Z,22.03
2022-08-28T09:27:00.423Z,20.85
2022-08-28T09:29:34.798Z,19.73
2022-08-28T09:32:25.744Z,20.02
2022-08-28T09:35:09.678Z,20.88
2022-08-28T09:37:41.508Z,19.69
2022-08-28T09:40:25.905Z,19.74
2022-08-28T09:43:36.047Z,21.56
2022-08-28T09:46:08.156Z,23.05
2022-08-28T09:48:39.905Z,22.96
2022-08-28T09:51:11.978Z,21.90
2022-08-28T09:54:03.603Z,20.49
2022-08-28T09:56:35.712Z,20.99
2022-08-28T09:59:09.764Z,21.45
2022-08-28T10:01:57.750Z,21.72
2022-08-28T10:04:57.738Z,20.96
2022-08-28T10:07:38.599Z,21.94
2022-08-28T10:10:28.722Z,20.85
2022-08-28T10:13:10.358Z,21.79
2022-08-28T10:16:15.154Z,21.11
2022-08-28T10:18:55.557Z,22.28
2022-08-28T10:21:44.236Z,23.63
2022-08-28T10:24:38.513Z,23.61
2022-08-28T10:27:24.365Z,23.58
2022-08-28T10:30:09.961Z,22.36
2022-08-28T10:33:26.713Z,21.27
2022-08-28T10:36:04.489Z,20.37
2022-08-28T10:38:51.252Z,20.52
2022-08-28T10:41:29.982Z,21.56
2022-08-28T10:44:04.947Z,22.02
2022-08-28T10:46:43.820Z,22.13
2022-08-28T10:49:25.244Z,22.81
2022-08-28T10:51:58.436Z,23.37
2022-08-28T10:54:35.884Z,22.85
2022-08-28T10:57:17.019Z,22.36
2022-08-28T10:59:51.633Z,21.65
2022-08-28T11:05:37.117Z,22.00
2022-08-28T11:08:26.218Z,21.98
2022-08-28T11:10:57.456Z,22.80
2022-08-28T11:13:52.101Z,23.57
2022-08-28T11:16:26.385Z,23.47
2022-08-28T11:19:44.138Z,23.28
2022-08-28T11:22:25.805Z,22.29
2022-08-28T11:25:09.444Z,23.07
2022-08-28T11:27:40.556Z,23.55
2022-08-28T11:30:36.776Z,22.58
2022-08-28T11:33:39.655Z,22.14
2022-08-28T11:36:13.910Z,23.01
2022-08-28T11:39:07.693Z,23.28
2022-08-28T11:41:39.157Z,22.92
2022-08-28T11:44:43.325Z,23.54
2022-08-28T11:47:53.184Z,24.55
2022-08-28T11:50:52.567Z,24.37
2022-08-28T11:53:50.642Z,23.78
2022-08-28T11:56:45.484Z,23.26
2022-08-28T11:59:55.145Z,22.55
2022-08-28T12:02:50.720Z,23.02
2022-08-28T12:05:56.354Z,23.14
2022-08-28T12:09:13.590Z,23.28
2022-08-28T12:12:05.278Z,23.38
2022-08-28T12:15:11.403Z,23.09
2022-08-28T12:17:53.530Z,22.35
2022-08-28T12:20:41.933Z,22.96
2022-08-28T12:23:45.115Z,23.32
2022-08-28T12:26:25.840Z,22.90
2022-08-28T12:29:00.084Z,22.14
2022-08-28T12:32:19.020Z,22.88
2022-08-28T12:35:11.866Z,22.87
2022-08-28T12:37:51.985Z,23.22
2022-08-28T12:40:26.813Z,22.63
2022-08-28T12:43:00.303Z,22.79
2022-08-28T12:45:39.615Z,22.78
2022-08-28T12:48:24.455Z,23.25
2022-08-28T12:51:03.063Z,23.80
2022-08-28T12:53:42.815Z,23.90
2022-08-28T12:56:13.604Z,24.29
2022-08-28T12:58:44.301Z,24.07
2022-08-28T13:01:24.869Z,24.49
2022-08-28T13:05:43.793Z,24.07
2022-08-28T13:08:22.156Z,24.16
2022-08-28T13:10:56.937Z,24.07
2022-08-28T13:13:37.370Z,23.93
2022-08-28T13:16:10.129Z,23.72
2022-08-28T13:18:50.214Z,23.34
2022-08-28T13:21:42.121Z,24.00
2022-08-28T13:24:54.298Z,24.12
2022-08-28T13:27:25.832Z,24.02
2022-08-28T13:30:09.577Z,24.23
2022-08-28T13:32:41.289Z,24.89
2022-08-28T13:35:37.897Z,25.46
2022-08-28T13:38:11.695Z,25.48
2022-08-28T13:40:58.402Z,24.29
2022-08-28T13:43:31.746Z,23.92
2022-08-28T13:46:00.826Z,24.20
2022-08-28T13:48:30.346Z,24.05
2022-08-28T13:51:07.066Z,24.55
2022-08-28T13:53:41.766Z,25.26
2022-08-28T13:56:11.243Z,25.48
2022-08-28T13:58:40.102Z,25.61
2022-08-28T14:01:09.257Z,25.68
2022-08-28T14:03:38.525Z,25.44
2022-08-28T14:06:11.996Z,25.99
2022-08-28T14:08:45.282Z,26.06
2022-08-28T14:11:16.778Z,25.55
2022-08-28T14:13:55.436Z,25.10
2022-08-28T14:16:25.834Z,25.10
2022-08-28T14:19:04.076Z,25.46
2022-08-28T14:21:33.849Z,25.36
2022-08-28T14:24:05.758Z,25.25
2022-08-28T14:26:35.804Z,25.09
2022-08-28T14:29:21.824Z,25.19
2022-08-28T14:31:54.425Z,24.85
2022-08-28T14:34:32.346Z,24.83
2022-08-28T14:37:01.877Z,24.77
2022-08-28T14:39:35.106Z,25.04
2022-08-28T14:42:06.786Z,25.25
2022-08-28T14:44:42.327Z,25.56
2022-08-28T14:47:12.348Z,24.98
2022-08-28T14:49:42.441Z,24.95
2022-08-28T14:52:11.943Z,24.54
2022-08-28T14:54:46.809Z,25.05
2022-08-28T14:57:16.447Z,25.60
2022-08-28T14:59:46.047Z,26.13
2022-08-28T15:05:25.024Z,26.06
2022-08-28T15:07:54.577Z,25.95
2022-08-28T15:10:24.302Z,25.80
2022-08-28T15:12:52.867Z,26.15
2022-08-28T15:15:25.123Z,25.97
2022-08-28T15:17:54.011Z,25.89
2022-08-28T15:20:24.438Z,25.99
2022-08-28T15:22:53.571Z,25.71
2022-08-28T15:25:22.913Z,25.54
2022-08-28T15:27:58.360Z,25.33
2022-08-28T15:30:27.376Z,25.35
2022-08-28T15:32:56.456Z,25.32
2022-08-28T15:35:27.308Z,25.00
2022-08-28T15:37:56.510Z,24.68
2022-08-28T15:40:43.320Z,24.31
2022-08-28T15:43:12.558Z,24.19
2022-08-28T15:45:56.467Z,24.70
2022-08-28T15:48:27.031Z,25.35
2022-08-28T15:50:58.823Z,24.53
2022-08-28T15:53:31.224Z,24.24
2022-08-28T15:56:05.212Z,24.41
2022-08-28T15:58:38.795Z,23.33
2022-08-28T16:01:08.469Z,22.68
2022-08-28T16:03:41.010Z,22.42
2022-08-28T16:06:19.022Z,21.99
2022-08-28T16:08:51.739Z,22.32
2022-08-28T16:11:32.174Z,22.33
2022-08-28T16:14:06.247Z,22.24
2022-08-28T16:16:49.106Z,22.74
2022-08-28T16:19:20.414Z,23.09
2022-08-28T16:21:50.775Z,23.59
2022-08-28T16:24:19.669Z,24.51
2022-08-28T16:26:48.799Z,24.92
2022-08-28T16:29:27.700Z,25.26
2022-08-28T16:32:01.355Z,25.45
2022-08-28T16:34:31.674Z,24.94
2022-08-28T16:37:04.221Z,24.00
2022-08-28T16:39:33.322Z,23.02
2022-08-28T16:42:09.037Z,22.29
2022-08-28T16:44:38.569Z,22.29
2022-08-28T16:47:11.706Z,23.27
2022-08-28T16:49:45.174Z,24.15
2022-08-28T16:52:15.899Z,23.75
2022-08-28T16:54:48.419Z,23.02
2022-08-28T16:57:32.449Z,23.22
2022-08-28T17:00:04.672Z,23.47
2022-08-28T17:05:25.317Z,23.34
2022-08-28T17:07:56.383Z,22.55
2022-08-28T17:10:29.800Z,21.77
2022-08-28T17:13:04.272Z,21.23
2022-08-28T17:15:34.705Z,20.91
2022-08-28T17:18:05.641Z,20.93
2022-08-28T17:20:57.630Z,21.34
2022-08-28T17:23:27.173Z,21.88
2022-08-28T17:26:00.713Z,21.88
2022-08-28T17:28:30.583Z,21.39
2022-08-28T17:31:18.956Z,20.87
2022-08-28T17:33:48.355Z,20.33
2022-08-28T17:36:33.620Z,20.02
2022-08-28T17:39:11.628Z,20.15
2022-08-28T17:41:43.035Z,19.99
2022-08-28T17:44:15.235Z,19.65
2022-08-28T17:46:46.143Z,19.34
2022-08-28T17:49:15.447Z,19.08
2022-08-28T17:51:47.097Z,18.83
2022-08-28T17:54:22.273Z,18.62
2022-08-28T17:56:54.715Z,18.43
2022-08-28T17:59:31.053Z,18.20
2022-08-28T18:02:04.131Z,18.04
2022-08-28T18:04:35.823Z,17.87
2022-08-28T18:07:12.534Z,17.73
2022-08-28T18:09:56.205Z,17.61
2022-08-28T18:12:26.496Z,17.50
2022-08-28T18:14:59.723Z,17.40
2022-08-28T18:17:32.094Z,17.28
2022-08-28T18:20:14.545Z,17.21
2022-08-28T18:22:56.901Z,17.15
2022-08-28T18:25:50.992Z,17.04
2022-08-28T18:28:26.680Z,16.88
2022-08-28T18:30:57.954Z,16.83
2022-08-28T18:33:27.723Z,16.80
2022-08-28T18:36:01.111Z,16.86
2022-08-28T18:38:35.295Z,16.92
2022-08-28T18:41:08.204Z,16.97
2022-08-28T18:43:38.196Z,16.93
2022-08-28T18:46:18.847Z,16.82
2022-08-28T18:48:49.997Z,16.75
2022-08-28T18:51:21.832Z,16.70
2022-08-28T18:53:52.769Z,16.64
2022-08-28T18:56:21.353Z,16.61
2022-08-28T18:58:52.117Z,16.61
2022-08-28T19:01:24.365Z,16.75
2022-08-28T19:05:24.337Z,16.85
2022-08-28T19:07:53.001Z,16.98
2022-08-28T19:10:33.371Z,17.21
2022-08-28T19:13:17.191Z,17.37
2022-08-28T19:15:51.776Z,17.42
2022-08-28T19:18:21.030Z,17.55
2022-08-28T19:20:52.669Z,17.56
2022-08-28T19:23:21.215Z,17.54
2022-08-28T19:25:50.444Z,17.64
2022-08-28T19:28:20.687Z,17.57
2022-08-28T19:30:50.923Z,17.65
2022-08-28T19:33:23.663Z,17.63
2022-08-28T19:35:55.197Z,17.68
2022-08-28T19:38:24.481Z,17.71
2022-08-28T19:40:58.105Z,17.62
2022-08-28T19:43:41.627Z,17.66
2022-08-28T19:46:19.314Z,17.66
2022-08-28T19:48:50.687Z,17.69
2022-08-28T19:51:24.279Z,17.68
2022-08-28T19:53:59.053Z,17.57
2022-08-28T19:56:30.085Z,17.59
2022-08-28T19:59:07.594Z,17.59
2022-08-28T20:01:41.652Z,17.48
2022-08-28T20:04:21.050Z,17.40
2022-08-28T20:06:51.625Z,17.35
2022-08-28T20:09:20.767Z,17.35
2022-08-28T20:11:49.933Z,17.40
2022-08-28T20:14:20.634Z,17.37
2022-08-28T20:16:54.798Z,17.28
2022-08-28T20:19:24.498Z,17.19
2022-08-28T20:21:58.447Z,17.13
2022-08-28T20:24:29.954Z,17.17
2022-08-28T20:27:01.992Z,17.16
2022-08-28T20:29:31.451Z,17.17
2022-08-28T20:32:01.260Z,17.13
2022-08-28T20:34:34.892Z,17.08
2022-08-28T20:37:08.435Z,17.01
2022-08-28T20:39:37.600Z,16.96
2022-08-28T20:42:06.774Z,16.97
2022-08-28T20:44:35.556Z,16.97
2022-08-28T20:47:05.995Z,16.94
2022-08-28T20:49:39.419Z,16.96
2022-08-28T20:52:10.021Z,16.97
2022-08-28T20:54:44.223Z,17.04
2022-08-28T20:57:19.251Z,17.06
2022-08-28T20:59:50.999Z,17.12
2022-08-28T21:05:25.734Z,17.06
2022-08-28T21:07:57.108Z,17.04
2022-08-28T21:10:29.189Z,17.05
2022-08-28T21:12:58.089Z,17.04
2022-08-28T21:15:28.442Z,17.02
2022-08-28T21:17:57.422Z,17.02
2022-08-28T21:20:30.839Z,17.00
2022-08-28T21:22:59.777Z,17.04
2022-08-28T21:25:28.460Z,17.07
2022-08-28T21:27:58.725Z,17.08
2022-08-28T21:30:33.128Z,17.11
2022-08-28T21:33:04.725Z,17.10
2022-08-28T21:35:41.443Z,17.16
2022-08-28T21:38:13.515Z,17.21
2022-08-28T21:40:46.184Z,17.22
2022-08-28T21:43:17.697Z,17.28
2022-08-28T21:45:49.191Z,17.32
2022-08-28T21:48:19.071Z,17.38
2022-08-28T21:50:57.951Z,17.45
2022-08-28T21:53:27.351Z,17.46
2022-08-28T21:55:57.164Z,17.47
2022-08-28T21:58:26.981Z,17.50
2022-08-28T22:00:58.207Z,17.48
2022-08-28T22:03:29.793Z,17.50
2022-08-28T22:06:03.613Z,17.54
2022-08-28T22:08:32.954Z,17.54
2022-08-28T22:11:04.792Z,17.53
2022-08-28T22:13:40.839Z,17.45
2022-08-28T22:16:10.826Z,17.36
2022-08-28T22:18:40.283Z,17.24
2022-08-28T22:21:35.347Z,17.18
2022-08-28T22:24:04.974Z,17.12
2022-08-28T22:26:33.876Z,17.08
2022-08-28T22:29:02.857Z,17.07
2022-08-28T22:31:32.681Z,17.09
2022-08-28T22:34:02.038Z,17.11
2022-08-28T22:36:33.265Z,17.10
2022-08-28T22:39:02.324Z,17.09
2022-08-28T22:41:37.754Z,17.00
2022-08-28T22:44:07.177Z,16.96
2022-08-28T22:46:38.339Z,16.99
2022-08-28T22:49:09.729Z,16.99
2022-08-28T22:51:40.039Z,17.00
2022-08-28T22:54:08.585Z,16.98
2022-08-28T22:56:37.779Z,17.00
2022-08-28T22:59:06.441Z,16.96
2022-08-28T23:01:36.188Z,16.93
2022-08-28T23:05:35.555Z,16.91
2022-08-28T23:08:06.339Z,16.98
2022-08-28T23:10:57.509Z,17.04
2022-08-28T23:13:26.548Z,17.11
2022-08-28T23:15:55.890Z,17.19
2022-08-28T23:18:24.945Z,17.28
2022-08-28T23:20:55.512Z,17.32
2022-08-28T23:23:26.545Z,17.33
2022-08-28T23:25:56.083Z,17.34
2022-08-28T23:28:29.270Z,17.33
2022-08-28T23:30:58.113Z,17.29
2022-08-28T23:33:27.922Z,17.29
2022-08-28T23:35:58.658Z,17.24
2022-08-28T23:38:30.855Z,17.28
2022-08-28T23:40:59.945Z,17.32
2022-08-28T23:43:28.631Z,17.37
2022-08-28T23:46:08.744Z,17.42
2022-08-28T23:48:42.197Z,17.51
2022-08-28T23:51:16.658Z,17.53
2022-08-28T23:53:45.744Z,17.54
2022-08-28T23:56:16.842Z,17.56
2022-08-28T23:58:46.194Z,17.52
